Time,TemperatureF,DewpointF,PressureIn,WindDirection,WindDirectionDegrees,WindSpeedMPH,WindSpeedGustMPH,Humidity,HourlyPrecipIn,Conditions,Clouds,dailyrainin,SoftwareType,DateUTC
2017-06-23 00:00:00,70.4,69.5,29.76,WSW,240,0.0,2.0,97,0.00,,,0.73,Wunderground v.1.15,2017-06-23 04:00:00,
2017-06-23 00:05:00,70.3,69.4,29.76,WSW,246,0.0,2.0,97,0.00,,,0.73,Wunderground v.1.15,2017-06-23 04:05:00,
2017-06-23 00:10:00,70.3,69.4,29.76,SE,136,0.0,1.0,97,0.00,,,0.73,Wunderground v.1.15,2017-06-23 04:10:00,
2017-06-23 00:20:00,70.3,69.4,29.76,SSE,167,0.0,0.0,97,0.00,,,0.00,Wunderground v.1.15,2017-06-23 04:20:00,
2017-06-23 00:25:00,70.2,69.3,29.75,SSW,200,0.0,0.0,97,0.00,,,0.00,Wunderground v.1.15,2017-06-23 04:25:00,
2017-06-23 00:30:00,70.2,69.3,29.75,SE,142,0.0,0.0,97,0.00,,,0.00,Wunderground v.1.15,2017-06-23 04:30:00,
2017-06-23 00:35:00,70.1,69.2,29.75,SSE,162,0.0,5.0,97,0.00,,,0.00,Wunderground v.1.15,2017-06-23 04:35:00,
2017-06-23 00:40:00,70.1,69.5,29.75,WSW,239,0.0,5.0,98,0.00,,,0.00,Wunderground v.1.15,2017-06-23 04:40:00,
2017-06-23 00:45:00,70.1,69.5,29.75,SW,214,0.0,5.0,98,0.00,,,0.00,Wunderground v.1.15,2017-06-23 04:45:00,
2017-06-23 00:50:00,70.0,69.4,29.75,SSE,166,0.0,5.0,98,0.00,,,0.00,Wunderground v.1.15,2017-06-23 04:50:00,
2017-06-23 01:00:00,69.9,69.3,29.75,SW,228,0.0,5.0,98,0.00,,,0.00,Wunderground v.1.15,2017-06-23 05:00:00,
2017-06-23 01:05:00,69.8,68.9,29.75,South,170,0.0,5.0,97,0.00,,,0.00,Wunderground v.1.15,2017-06-23 05:05:00,
2017-06-23 01:10:00,69.8,69.2,29.75,SW,217,0.0,0.0,98,0.00,,,0.00,Wunderground v.1.15,2017-06-23 05:10:00,
2017-06-23 01:15:00,69.8,69.2,29.74,SSE,156,0.0,0.0,98,0.00,,,0.00,Wunderground v.1.15,2017-06-23 05:15:00,
2017-06-23 01:20:00,69.8,69.2,29.74,SSE,153,0.0,1.0,98,0.00,,,0.00,Wunderground v.1.15,2017-06-23 05:20:00,
2017-06-23 01:25:00,69.8,69.2,29.74,SW,224,1.0,1.0,98,0.00,,,0.00,Wunderground v.1.15,2017-06-23 05:25:00,
2017-06-23 01:30:00,69.8,69.2,29.73,SE,131,1.0,1.0,98,0.00,,,0.00,Wunderground v.1.15,2017-06-23 05:30:00,
2017-06-23 01:40:00,70.0,69.4,29.73,WSW,238,1.0,1.0,98,0.00,,,0.00,Wunderground v.1.15,2017-06-23 05:40:00,
2017-06-23 01:45:00,70.1,69.2,29.73,SSW,205,2.0,2.0,97,0.00,,,0.00,Wunderground v.1.15,2017-06-23 05:45:00,
2017-06-23 01:50:00,70.1,69.2,29.72,SW,225,2.0,2.0,97,0.00,,,0.00,Wunderground v.1.15,2017-06-23 05:50:00,
2017-06-23 01:55:00,70.2,69.3,29.72,West,267,2.0,2.0,97,0.00,,,0.00,Wunderground v.1.15,2017-06-23 05:55:00,
2017-06-23 02:00:00,70.4,69.5,29.72,ESE,111,2.0,2.0,97,0.00,,,0.00,Wunderground v.1.15,2017-06-23 06:00:00,
2017-06-23 02:05:00,70.4,69.2,29.72,SSE,157,2.0,2.0,96,0.00,,,0.00,Wunderground v.1.15,2017-06-23 06:05:00,
2017-06-23 02:15:00,70.7,69.2,29.72,SSE,167,2.0,4.0,95,0.00,,,0.00,Wunderground v.1.15,2017-06-23 06:15:00,
2017-06-23 02:25:00,71.0,69.2,29.71,SW,221,2.0,2.0,94,0.00,,,0.00,Wunderground v.1.15,2017-06-23 06:25:00,
2017-06-23 02:30:00,70.9,69.1,29.71,WSW,243,2.0,2.0,94,0.00,,,0.00,Wunderground v.1.15,2017-06-23 06:30:00,
2017-06-23 02:35:00,70.9,68.8,29.71,SSE,164,2.0,4.0,93,0.00,,,0.00,Wunderground v.1.15,2017-06-23 06:35:00,
2017-06-23 02:40:00,70.9,68.8,29.70,ESE,122,2.0,2.0,93,0.00,,,0.00,Wunderground v.1.15,2017-06-23 06:40:00,
2017-06-23 02:45:00,70.9,68.8,29.70,WSW,246,2.0,4.0,93,0.00,,,0.00,Wunderground v.1.15,2017-06-23 06:45:00,
2017-06-23 02:50:00,71.0,68.9,29.70,SSW,211,2.0,8.0,93,0.00,,,0.00,Wunderground v.1.15,2017-06-23 06:50:00,
2017-06-23 02:55:00,71.0,68.9,29.69,WSW,243,2.0,8.0,93,0.00,,,0.00,Wunderground v.1.15,2017-06-23 06:55:00,
2017-06-23 03:05:00,70.8,68.7,29.69,SW,234,1.0,2.0,93,0.00,,,0.00,Wunderground v.1.15,2017-06-23 07:05:00,
2017-06-23 03:10:00,70.8,68.7,29.69,WSW,246,1.0,1.0,93,0.00,,,0.00,Wunderground v.1.15,2017-06-23 07:10:00,
2017-06-23 03:15:00,70.8,68.7,29.69,WSW,240,1.0,1.0,93,0.00,,,0.00,Wunderground v.1.15,2017-06-23 07:15:00,
2017-06-23 03:20:00,70.9,68.8,29.68,SSE,148,1.0,1.0,93,0.00,,,0.00,Wunderground v.1.15,2017-06-23 07:20:00,
2017-06-23 03:25:00,70.9,68.8,29.68,SSW,207,1.0,1.0,93,0.00,,,0.00,Wunderground v.1.15,2017-06-23 07:25:00,
2017-06-23 03:30:00,70.9,68.8,29.68,ESE,121,1.0,1.0,93,0.00,,,0.00,Wunderground v.1.15,2017-06-23 07:30:00,
2017-06-23 03:35:00,71.0,68.9,29.67,SE,143,1.0,8.0,93,0.00,,,0.00,Wunderground v.1.15,2017-06-23 07:35:00,
2017-06-23 03:45:00,71.0,68.9,29.67,SSE,153,0.0,8.0,93,0.00,,,0.00,Wunderground v.1.15,2017-06-23 07:45:00,
2017-06-23 03:50:00,71.0,68.9,29.67,SE,133,1.0,8.0,93,0.00,,,0.00,Wunderground v.1.15,2017-06-23 07:50:00,
2017-06-23 03:55:00,71.1,69.0,29.67,WSW,246,1.0,8.0,93,0.00,,,0.00,Wunderground v.1.15,2017-06-23 07:55:00,
2017-06-23 04:00:00,71.1,69.0,29.67,SSE,160,1.0,8.0,93,0.00,,,0.00,Wunderground v.1.15,2017-06-23 08:00:00,
2017-06-23 04:05:00,71.1,68.7,29.67,SE,136,1.0,8.0,92,0.00,,,0.00,Wunderground v.1.15,2017-06-23 08:05:00,
2017-06-23 04:10:00,71.2,68.8,29.66,WSW,248,1.0,2.0,92,0.00,,,0.00,Wunderground v.1.15,2017-06-23 08:10:00,
2017-06-23 04:20:00,71.1,68.7,29.66,SW,215,1.0,2.0,92,0.00,,,0.00,Wunderground v.1.15,2017-06-23 08:20:00,
2017-06-23 04:25:00,71.2,68.8,29.66,SSW,194,1.0,2.0,92,0.00,,,0.00,Wunderground v.1.15,2017-06-23 08:25:00,
2017-06-23 04:30:00,71.2,68.8,29.66,SE,143,1.0,1.0,92,0.00,,,0.00,Wunderground v.1.15,2017-06-23 08:30:00,
2017-06-23 04:35:00,71.3,68.9,29.65,SSE,166,1.0,8.0,92,0.00,,,0.00,Wunderground v.1.15,2017-06-23 08:35:00,
2017-06-23 04:40:00,71.2,68.8,29.65,SW,222,1.0,1.0,92,0.00,,,0.00,Wunderground v.1.15,2017-06-23 08:40:00,
2017-06-23 04:45:00,71.2,68.8,29.65,WSW,242,1.0,5.0,92,0.00,,,0.00,Wunderground v.1.15,2017-06-23 08:45:00,
2017-06-23 04:50:00,71.3,68.5,29.65,South,174,1.0,8.0,91,0.00,,,0.00,Wunderground v.1.15,2017-06-23 08:50:00,
2017-06-23 05:00:00,71.2,68.8,29.64,SW,224,1.0,1.0,92,0.00,,,0.00,Wunderground v.1.15,2017-06-23 09:00:00,
2017-06-23 05:05:00,71.2,68.8,29.64,SW,229,1.0,2.0,92,0.00,,,0.00,Wunderground v.1.15,2017-06-23 09:05:00,
2017-06-23 05:10:00,71.1,68.7,29.64,SW,219,2.0,2.0,92,0.00,,,0.00,Wunderground v.1.15,2017-06-23 09:10:00,
2017-06-23 05:15:00,71.1,68.7,29.64,SSE,158,2.0,2.0,92,0.00,,,0.00,Wunderground v.1.15,2017-06-23 09:15:00,
2017-06-23 05:20:00,71.1,68.7,29.64,SSE,160,2.0,4.0,92,0.00,,,0.00,Wunderground v.1.15,2017-06-23 09:20:00,
2017-06-23 05:25:00,70.5,67.7,29.64,WNW,283,2.0,4.0,91,0.00,,,0.00,Wunderground v.1.15,2017-06-23 09:25:00,
2017-06-23 05:30:00,70.5,67.7,29.64,WNW,283,0.0,0.0,91,0.00,,,0.00,Wunderground v.1.15,2017-06-23 09:30:00,
2017-06-23 05:40:00,-999.9,-99.9,29.64,North,32767,-999.9,7.0,255,-99.99,,,0.00,Wunderground v.1.15,2017-06-23 09:40:00,
2017-06-23 05:50:00,-999.9,-99.9,29.64,North,32767,-999.9,7.0,255,-99.99,,,0.00,Wunderground v.1.15,2017-06-23 09:50:00,
2017-06-23 05:55:00,-999.9,-99.9,29.64,North,32767,-999.9,7.0,255,-99.99,,,0.00,Wunderground v.1.15,2017-06-23 09:55:00,
2017-06-23 06:00:00,-999.9,-99.9,29.63,North,32767,-999.9,7.0,255,-99.99,,,0.00,Wunderground v.1.15,2017-06-23 10:00:00,
2017-06-23 06:05:00,-999.9,-99.9,29.63,North,32767,-999.9,7.0,255,-99.99,,,0.00,Wunderground v.1.15,2017-06-23 10:05:00,
2017-06-23 06:15:00,-999.9,-99.9,29.63,North,32767,-999.9,0.0,255,-99.99,,,0.00,Wunderground v.1.15,2017-06-23 10:15:00,
2017-06-23 06:20:00,-999.9,-99.9,29.63,North,32767,-999.9,0.0,255,-99.99,,,0.00,Wunderground v.1.15,2017-06-23 10:20:00,
2017-06-23 06:25:00,-999.9,-99.9,29.63,North,32767,-999.9,0.0,255,-99.99,,,0.00,Wunderground v.1.15,2017-06-23 10:25:00,
2017-06-23 06:30:00,-999.9,-99.9,29.63,North,32767,-999.9,0.0,255,-99.99,,,0.00,Wunderground v.1.15,2017-06-23 10:30:00,
2017-06-23 06:35:00,-999.9,-99.9,29.63,North,32767,-999.9,7.0,255,-99.99,,,0.00,Wunderground v.1.15,2017-06-23 10:35:00,
2017-06-23 06:40:00,-999.9,-99.9,29.63,North,32767,-999.9,7.0,255,-99.99,,,0.00,Wunderground v.1.15,2017-06-23 10:40:00,
2017-06-23 06:45:00,-999.9,-99.9,29.63,North,32767,-999.9,7.0,255,-99.99,,,0.00,Wunderground v.1.15,2017-06-23 10:45:00,